sensor_id;sensor_type;location;lat;lon;timestamp;pressure;altitude;pressure_sealevel;temperature;humidity
47913;BME280;33676;51.006;17.180;2023-05-07T00:01:31;100578.67;;;9.69;94.02
47913;BME280;33676;51.006;17.180;2023-05-07T00:04:00;100580.39;;;9.69;94.12
47913;BME280;33676;51.006;17.180;2023-05-07T00:06:29;100577.38;;;9.70;94.21
47913;BME280;33676;51.006;17.180;2023-05-07T00:08:58;100581.50;;;9.71;94.22
47913;BME280;33676;51.006;17.180;2023-05-07T00:11:29;100580.16;;;9.73;94.39
47913;BME280;33676;51.006;17.180;2023-05-07T00:13:57;100582.15;;;9.74;94.38
47913;BME280;33676;51.006;17.180;2023-05-07T00:16:26;100583.42;;;9.73;94.20
47913;BME280;33676;51.006;17.180;2023-05-07T00:18:54;100584.83;;;9.73;94.29
47913;BME280;33676;51.006;17.180;2023-05-07T00:21:22;100583.11;;;9.73;94.35
47913;BME280;33676;51.006;17.180;2023-05-07T00:23:54;100582.61;;;9.73;94.30
47913;BME280;33676;51.006;17.180;2023-05-07T00:26:23;100584.34;;;9.73;94.27
47913;BME280;33676;51.006;17.180;2023-05-07T00:28:51;100586.05;;;9.73;94.36
47913;BME280;33676;51.006;17.180;2023-05-07T00:31:43;100587.40;;;9.74;94.58
47913;BME280;33676;51.006;17.180;2023-05-07T00:34:12;100582.19;;;9.74;94.44
47913;BME280;33676;51.006;17.180;2023-05-07T00:36:40;100585.40;;;9.73;94.40
47913;BME280;33676;51.006;17.180;2023-05-07T00:39:08;100589.65;;;9.72;94.26
47913;BME280;33676;51.006;17.180;2023-05-07T00:41:43;100593.16;;;9.71;94.32
47913;BME280;33676;51.006;17.180;2023-05-07T00:44:12;100595.17;;;9.73;94.48
47913;BME280;33676;51.006;17.180;2023-05-07T00:46:40;100593.31;;;9.72;94.31
47913;BME280;33676;51.006;17.180;2023-05-07T00:49:09;100595.97;;;9.71;94.20
47913;BME280;33676;51.006;17.180;2023-05-07T00:51:38;100597.25;;;9.70;94.27
47913;BME280;33676;51.006;17.180;2023-05-07T00:54:07;100596.04;;;9.70;94.22
47913;BME280;33676;51.006;17.180;2023-05-07T00:56:38;100597.17;;;9.72;94.35
47913;BME280;33676;51.006;17.180;2023-05-07T00:59:07;100598.40;;;9.72;94.21
47913;BME280;33676;51.006;17.180;2023-05-07T01:01:37;100599.17;;;9.70;94.14
47913;BME280;33676;51.006;17.180;2023-05-07T01:04:05;100601.98;;;9.68;94.07
47913;BME280;33676;51.006;17.180;2023-05-07T01:06:34;100599.48;;;9.66;94.18
47913;BME280;33676;51.006;17.180;2023-05-07T01:09:09;100599.39;;;9.67;94.20
47913;BME280;33676;51.006;17.180;2023-05-07T01:11:37;100596.83;;;9.66;94.23
47913;BME280;33676;51.006;17.180;2023-05-07T01:14:07;100601.33;;;9.67;94.35
47913;BME280;33676;51.006;17.180;2023-05-07T01:16:37;100598.60;;;9.69;94.33
47913;BME280;33676;51.006;17.180;2023-05-07T01:19:05;100603.20;;;9.68;94.29
47913;BME280;33676;51.006;17.180;2023-05-07T01:21:36;100604.66;;;9.67;94.22
47913;BME280;33676;51.006;17.180;2023-05-07T01:24:31;100600.40;;;9.65;94.11
47913;BME280;33676;51.006;17.180;2023-05-07T01:26:59;100603.79;;;9.64;94.27
47913;BME280;33676;51.006;17.180;2023-05-07T01:29:52;100608.96;;;9.65;94.26
47913;BME280;33676;51.006;17.180;2023-05-07T01:32:51;100605.05;;;9.64;94.34
47913;BME280;33676;51.006;17.180;2023-05-07T01:36:11;100603.78;;;9.59;94.10
47913;BME280;33676;51.006;17.180;2023-05-07T01:38:41;100605.36;;;9.56;93.96
47913;BME280;33676;51.006;17.180;2023-05-07T01:41:11;100606.67;;;9.55;94.03
47913;BME280;33676;51.006;17.180;2023-05-07T01:43:41;100603.40;;;9.54;94.01
47913;BME280;33676;51.006;17.180;2023-05-07T01:46:10;100606.98;;;9.53;93.96
47913;BME280;33676;51.006;17.180;2023-05-07T01:48:40;100605.44;;;9.53;93.99
47913;BME280;33676;51.006;17.180;2023-05-07T01:51:08;100609.05;;;9.51;93.93
47913;BME280;33676;51.006;17.180;2023-05-07T01:53:38;100607.99;;;9.51;94.08
47913;BME280;33676;51.006;17.180;2023-05-07T01:56:12;100612.02;;;9.51;94.11
47913;BME280;33676;51.006;17.180;2023-05-07T01:58:40;100614.95;;;9.51;94.06
47913;BME280;33676;51.006;17.180;2023-05-07T02:01:09;100613.25;;;9.51;94.11
47913;BME280;33676;51.006;17.180;2023-05-07T02:03:40;100609.92;;;9.51;94.16
47913;BME280;33676;51.006;17.180;2023-05-07T02:06:10;100611.10;;;9.52;94.34
47913;BME280;33676;51.006;17.180;2023-05-07T02:08:38;100609.29;;;9.53;94.44
47913;BME280;33676;51.006;17.180;2023-05-07T02:11:07;100612.10;;;9.52;94.53
47913;BME280;33676;51.006;17.180;2023-05-07T02:13:36;100616.91;;;9.51;94.51
47913;BME280;33676;51.006;17.180;2023-05-07T02:16:05;100614.86;;;9.50;94.53
47913;BME280;33676;51.006;17.180;2023-05-07T02:18:33;100613.16;;;9.49;94.60
47913;BME280;33676;51.006;17.180;2023-05-07T02:21:03;100613.59;;;9.49;94.60
47913;BME280;33676;51.006;17.180;2023-05-07T02:23:55;100611.80;;;9.47;94.57
47913;BME280;33676;51.006;17.180;2023-05-07T02:26:24;100614.00;;;9.45;94.53
47913;BME280;33676;51.006;17.180;2023-05-07T02:28:53;100616.89;;;9.43;94.59
47913;BME280;33676;51.006;17.180;2023-05-07T02:31:24;100616.63;;;9.42;94.53
47913;BME280;33676;51.006;17.180;2023-05-07T02:33:52;100619.39;;;9.42;94.62
47913;BME280;33676;51.006;17.180;2023-05-07T02:36:21;100618.49;;;9.40;94.46
47913;BME280;33676;51.006;17.180;2023-05-07T02:38:49;100617.26;;;9.38;94.43
47913;BME280;33676;51.006;17.180;2023-05-07T02:53:08;100629.17;;;9.71;93.69
47913;BME280;33676;51.006;17.180;2023-05-07T02:55:36;100632.38;;;9.72;93.64
47913;BME280;33676;51.006;17.180;2023-05-07T02:58:05;100635.20;;;9.67;93.56
47913;BME280;33676;51.006;17.180;2023-05-07T03:00:33;100635.91;;;9.61;93.53
47913;BME280;33676;51.006;17.180;2023-05-07T03:03:02;100637.65;;;9.56;93.57
47913;BME280;33676;51.006;17.180;2023-05-07T03:05:30;100637.98;;;9.51;93.59
47913;BME280;33676;51.006;17.180;2023-05-07T03:08:04;100631.26;;;9.48;93.71
47913;BME280;33676;51.006;17.180;2023-05-07T03:10:32;100635.88;;;9.44;93.71
47913;BME280;33676;51.006;17.180;2023-05-07T03:13:01;100646.20;;;9.41;93.60
47913;BME280;33676;51.006;17.180;2023-05-07T03:15:30;100646.59;;;9.38;93.70
47913;BME280;33676;51.006;17.180;2023-05-07T03:17:58;100647.41;;;9.36;93.82
47913;BME280;33676;51.006;17.180;2023-05-07T03:20:27;100650.77;;;9.33;93.70
47913;BME280;33676;51.006;17.180;2023-05-07T03:22:55;100646.90;;;9.31;93.82
47913;BME280;33676;51.006;17.180;2023-05-07T03:25:24;100649.85;;;9.28;93.66
47913;BME280;33676;51.006;17.180;2023-05-07T03:27:52;100650.70;;;9.26;93.64
47913;BME280;33676;51.006;17.180;2023-05-07T03:30:22;100653.35;;;9.23;93.69
47913;BME280;33676;51.006;17.180;2023-05-07T03:32:55;100658.40;;;9.23;93.73
47913;BME280;33676;51.006;17.180;2023-05-07T03:35:25;100662.38;;;9.24;94.05
47913;BME280;33676;51.006;17.180;2023-05-07T03:37:57;100662.08;;;9.23;93.98
47913;BME280;33676;51.006;17.180;2023-05-07T03:40:49;100663.82;;;9.23;94.05
47913;BME280;33676;51.006;17.180;2023-05-07T03:43:18;100667.02;;;9.22;93.96
47913;BME280;33676;51.006;17.180;2023-05-07T03:45:46;100671.27;;;9.21;93.93
47913;BME280;33676;51.006;17.180;2023-05-07T03:48:27;100671.29;;;9.21;93.80
47913;BME280;33676;51.006;17.180;2023-05-07T03:50:57;100672.45;;;9.21;93.88
47913;BME280;33676;51.006;17.180;2023-05-07T03:53:26;100677.44;;;9.20;93.67
47913;BME280;33676;51.006;17.180;2023-05-07T03:56:25;100677.27;;;9.20;93.78
47913;BME280;33676;51.006;17.180;2023-05-07T03:58:53;100683.75;;;9.20;93.73
47913;BME280;33676;51.006;17.180;2023-05-07T04:01:24;100687.33;;;9.18;93.59
47913;BME280;33676;51.006;17.180;2023-05-07T04:03:52;100692.29;;;9.17;93.68
47913;BME280;33676;51.006;17.180;2023-05-07T04:06:21;100695.54;;;9.18;93.68
47913;BME280;33676;51.006;17.180;2023-05-07T04:08:50;100701.25;;;9.19;93.65
47913;BME280;33676;51.006;17.180;2023-05-07T04:11:18;100700.95;;;9.18;93.54
47913;BME280;33676;51.006;17.180;2023-05-07T04:13:47;100703.02;;;9.18;93.56
47913;BME280;33676;51.006;17.180;2023-05-07T04:16:15;100704.19;;;9.19;93.50
47913;BME280;33676;51.006;17.180;2023-05-07T04:18:43;100709.36;;;9.20;93.41
47913;BME280;33676;51.006;17.180;2023-05-07T04:21:36;100718.30;;;9.22;93.37
47913;BME280;33676;51.006;17.180;2023-05-07T04:24:05;100718.63;;;9.25;93.61
47913;BME280;33676;51.006;17.180;2023-05-07T04:26:33;100724.61;;;9.27;93.65
47913;BME280;33676;51.006;17.180;2023-05-07T04:29:02;100722.98;;;9.27;93.44
47913;BME280;33676;51.006;17.180;2023-05-07T04:31:30;100729.21;;;9.28;93.34
47913;BME280;33676;51.006;17.180;2023-05-07T04:33:58;100730.95;;;9.29;93.27
47913;BME280;33676;51.006;17.180;2023-05-07T04:36:27;100736.12;;;9.30;93.35
47913;BME280;33676;51.006;17.180;2023-05-07T04:38:56;100741.08;;;9.32;93.35
47913;BME280;33676;51.006;17.180;2023-05-07T04:41:24;100743.00;;;9.34;93.39
47913;BME280;33676;51.006;17.180;2023-05-07T04:43:58;100745.37;;;9.35;93.29
47913;BME280;33676;51.006;17.180;2023-05-07T04:46:50;100747.89;;;9.37;93.30
47913;BME280;33676;51.006;17.180;2023-05-07T04:49:21;100743.65;;;9.40;93.32
47913;BME280;33676;51.006;17.180;2023-05-07T04:51:51;100745.61;;;9.42;93.20
47913;BME280;33676;51.006;17.180;2023-05-07T04:54:20;100750.91;;;9.43;93.16
47913;BME280;33676;51.006;17.180;2023-05-07T04:56:48;100759.51;;;9.45;93.09
47913;BME280;33676;51.006;17.180;2023-05-07T04:59:17;100762.63;;;9.48;93.10
47913;BME280;33676;51.006;17.180;2023-05-07T05:01:45;100766.37;;;9.52;93.12
47913;BME280;33676;51.006;17.180;2023-05-07T05:04:14;100769.50;;;9.52;92.87
47913;BME280;33676;51.006;17.180;2023-05-07T05:06:58;100772.09;;;9.53;92.83
47913;BME280;33676;51.006;17.180;2023-05-07T05:09:26;100765.92;;;9.54;92.62
47913;BME280;33676;51.006;17.180;2023-05-07T05:11:55;100770.30;;;9.56;92.63
47913;BME280;33676;51.006;17.180;2023-05-07T05:14:23;100772.90;;;9.59;92.69
47913;BME280;33676;51.006;17.180;2023-05-07T05:17:15;100776.21;;;9.62;92.61
47913;BME280;33676;51.006;17.180;2023-05-07T05:19:44;100779.25;;;9.63;92.44
47913;BME280;33676;51.006;17.180;2023-05-07T05:22:12;100778.88;;;9.64;92.39
47913;BME280;33676;51.006;17.180;2023-05-07T05:24:41;100780.95;;;9.64;92.18
47913;BME280;33676;51.006;17.180;2023-05-07T05:27:09;100789.83;;;9.65;92.07
47913;BME280;33676;51.006;17.180;2023-05-07T05:29:37;100793.94;;;9.66;92.07
47913;BME280;33676;51.006;17.180;2023-05-07T05:32:06;100795.30;;;9.67;92.03
47913;BME280;33676;51.006;17.180;2023-05-07T05:34:36;100798.02;;;9.68;92.05
47913;BME280;33676;51.006;17.180;2023-05-07T05:37:04;100802.04;;;9.70;92.09
47913;BME280;33676;51.006;17.180;2023-05-07T05:39:33;100805.25;;;9.72;91.93
47913;BME280;33676;51.006;17.180;2023-05-07T05:42:01;100799.66;;;9.74;91.87
47913;BME280;33676;51.006;17.180;2023-05-07T05:44:56;100802.35;;;9.78;91.79
47913;BME280;33676;51.006;17.180;2023-05-07T05:47:24;100802.55;;;9.86;91.89
47913;BME280;33676;51.006;17.180;2023-05-07T05:49:53;100797.02;;;9.92;91.76
47913;BME280;33676;51.006;17.180;2023-05-07T05:52:21;100796.04;;;9.97;91.49
47913;BME280;33676;51.006;17.180;2023-05-07T05:54:51;100792.10;;;10.03;91.61
47913;BME280;33676;51.006;17.180;2023-05-07T05:57:20;100793.54;;;10.10;91.58
47913;BME280;33676;51.006;17.180;2023-05-07T06:00:07;100796.96;;;10.17;91.40
47913;BME280;33676;51.006;17.180;2023-05-07T06:03:02;100801.91;;;10.24;91.29
47913;BME280;33676;51.006;17.180;2023-05-07T06:05:31;100800.57;;;10.34;91.06
47913;BME280;33676;51.006;17.180;2023-05-07T06:08:06;100803.73;;;10.43;91.20
47913;BME280;33676;51.006;17.180;2023-05-07T06:10:37;100801.25;;;10.51;90.64
47913;BME280;33676;51.006;17.180;2023-05-07T06:13:05;100802.76;;;10.54;90.25
47913;BME280;33676;51.006;17.180;2023-05-07T06:15:34;100803.33;;;10.59;90.11
47913;BME280;33676;51.006;17.180;2023-05-07T06:18:02;100807.52;;;10.64;89.99
47913;BME280;33676;51.006;17.180;2023-05-07T06:20:56;100809.40;;;10.70;89.85
47913;BME280;33676;51.006;17.180;2023-05-07T06:23:25;100814.41;;;10.76;89.81
47913;BME280;33676;51.006;17.180;2023-05-07T06:25:53;100811.31;;;10.80;89.37
47913;BME280;33676;51.006;17.180;2023-05-07T06:28:23;100816.03;;;10.85;89.16
47913;BME280;33676;51.006;17.180;2023-05-07T06:30:51;100820.24;;;10.89;89.23
47913;BME280;33676;51.006;17.180;2023-05-07T06:33:19;100822.46;;;10.92;89.13
47913;BME280;33676;51.006;17.180;2023-05-07T06:35:48;100829.08;;;10.98;89.06
47913;BME280;33676;51.006;17.180;2023-05-07T06:38:16;100833.39;;;11.04;89.17
47913;BME280;33676;51.006;17.180;2023-05-07T06:40:49;100835.59;;;11.07;88.89
47913;BME280;33676;51.006;17.180;2023-05-07T06:43:17;100833.84;;;11.07;88.47
47913;BME280;33676;51.006;17.180;2023-05-07T06:45:46;100836.45;;;11.07;88.18
47913;BME280;33676;51.006;17.180;2023-05-07T06:48:14;100839.09;;;11.10;88.09
47913;BME280;33676;51.006;17.180;2023-05-07T06:50:43;100842.70;;;11.08;87.95
47913;BME280;33676;51.006;17.180;2023-05-07T06:53:11;100846.27;;;11.04;87.81
47913;BME280;33676;51.006;17.180;2023-05-07T06:55:40;100850.38;;;11.01;87.79
47913;BME280;33676;51.006;17.180;2023-05-07T06:58:09;100855.00;;;10.95;87.63
47913;BME280;33676;51.006;17.180;2023-05-07T07:00:38;100855.11;;;10.91;87.52
47913;BME280;33676;51.006;17.180;2023-05-07T07:03:07;100856.52;;;10.88;87.32
47913;BME280;33676;51.006;17.180;2023-05-07T07:05:35;100864.45;;;10.88;87.39
47913;BME280;33676;51.006;17.180;2023-05-07T07:08:04;100868.29;;;10.88;87.36
47913;BME280;33676;51.006;17.180;2023-05-07T07:10:33;100869.48;;;10.86;86.88
47913;BME280;33676;51.006;17.180;2023-05-07T07:13:02;100871.60;;;10.85;86.84
47913;BME280;33676;51.006;17.180;2023-05-07T07:15:30;100873.00;;;10.85;86.72
47913;BME280;33676;51.006;17.180;2023-05-07T07:17:59;100873.64;;;10.89;86.84
47913;BME280;33676;51.006;17.180;2023-05-07T07:20:27;100872.84;;;10.92;86.66
47913;BME280;33676;51.006;17.180;2023-05-07T07:22:56;100872.41;;;11.01;86.62
47913;BME280;33676;51.006;17.180;2023-05-07T07:25:24;100876.70;;;11.17;86.91
47913;BME280;33676;51.006;17.180;2023-05-07T07:27:53;100874.43;;;11.34;86.64
47913;BME280;33676;51.006;17.180;2023-05-07T07:30:21;100882.53;;;11.50;86.54
47913;BME280;33676;51.006;17.180;2023-05-07T07:32:49;100878.02;;;11.67;86.24
47913;BME280;33676;51.006;17.180;2023-05-07T07:35:18;100882.58;;;11.83;86.30
47913;BME280;33676;51.006;17.180;2023-05-07T07:37:48;100886.55;;;11.96;85.64
47913;BME280;33676;51.006;17.180;2023-05-07T07:40:18;100897.47;;;12.02;84.92
47913;BME280;33676;51.006;17.180;2023-05-07T07:42:47;100899.87;;;11.98;84.36
47913;BME280;33676;51.006;17.180;2023-05-07T07:45:15;100901.84;;;11.96;84.28
47913;BME280;33676;51.006;17.180;2023-05-07T07:47:43;100908.32;;;11.91;83.99
47913;BME280;33676;51.006;17.180;2023-05-07T07:50:12;100910.39;;;11.84;83.80
47913;BME280;33676;51.006;17.180;2023-05-07T07:52:49;100911.81;;;11.79;83.84
47913;BME280;33676;51.006;17.180;2023-05-07T07:55:20;100919.06;;;11.73;83.63
47913;BME280;33676;51.006;17.180;2023-05-07T07:57:51;100925.83;;;11.64;83.34
47913;BME280;33676;51.006;17.180;2023-05-07T08:00:20;100927.08;;;11.54;83.30
47913;BME280;33676;51.006;17.180;2023-05-07T08:02:48;100928.92;;;11.43;83.06
47913;BME280;33676;51.006;17.180;2023-05-07T08:05:17;100929.43;;;11.29;82.91
47913;BME280;33676;51.006;17.180;2023-05-07T08:07:45;100930.35;;;11.15;83.01
47913;BME280;33676;51.006;17.180;2023-05-07T08:10:14;100931.94;;;11.00;82.87
47913;BME280;33676;51.006;17.180;2023-05-07T08:12:50;100934.55;;;10.88;83.22
47913;BME280;33676;51.006;17.180;2023-05-07T08:15:18;100931.88;;;10.79;83.03
47913;BME280;33676;51.006;17.180;2023-05-07T08:17:47;100934.77;;;10.70;82.91
47913;BME280;33676;51.006;17.180;2023-05-07T08:20:16;100939.14;;;10.65;83.07
47913;BME280;33676;51.006;17.180;2023-05-07T08:22:45;100936.02;;;10.62;83.14
47913;BME280;33676;51.006;17.180;2023-05-07T08:25:13;100938.20;;;10.60;82.99
47913;BME280;33676;51.006;17.180;2023-05-07T08:27:42;100939.30;;;10.62;83.26
47913;BME280;33676;51.006;17.180;2023-05-07T08:30:11;100939.48;;;10.67;83.42
47913;BME280;33676;51.006;17.180;2023-05-07T08:32:42;100936.46;;;10.73;83.47
47913;BME280;33676;51.006;17.180;2023-05-07T08:35:11;100942.23;;;10.78;83.58
47913;BME280;33676;51.006;17.180;2023-05-07T08:37:40;100947.45;;;10.84;83.53
47913;BME280;33676;51.006;17.180;2023-05-07T08:40:11;100952.73;;;10.88;83.59
47913;BME280;33676;51.006;17.180;2023-05-07T08:43:32;100955.69;;;10.96;83.65
47913;BME280;33676;51.006;17.180;2023-05-07T08:46:04;100955.53;;;10.95;83.30
47913;BME280;33676;51.006;17.180;2023-05-07T08:48:37;100961.16;;;10.95;83.21
47913;BME280;33676;51.006;17.180;2023-05-07T08:51:06;100962.29;;;10.94;83.06
47913;BME280;33676;51.006;17.180;2023-05-07T08:53:35;100965.14;;;10.93;83.05
47913;BME280;33676;51.006;17.180;2023-05-07T08:56:05;100970.35;;;10.96;83.31
47913;BME280;33676;51.006;17.180;2023-05-07T08:58:36;100973.66;;;10.96;83.18
47913;BME280;33676;51.006;17.180;2023-05-07T09:01:13;100971.84;;;10.95;82.99
47913;BME280;33676;51.006;17.180;2023-05-07T09:03:46;100976.02;;;10.95;83.14
47913;BME280;33676;51.006;17.180;2023-05-07T09:06:16;100973.70;;;10.96;82.92
47913;BME280;33676;51.006;17.180;2023-05-07T09:09:00;100970.35;;;10.99;82.82
47913;BME280;33676;51.006;17.180;2023-05-07T09:11:29;100970.45;;;11.12;83.14
47913;BME280;33676;51.006;17.180;2023-05-07T09:13:58;100969.02;;;11.31;83.40
47913;BME280;33676;51.006;17.180;2023-05-07T09:16:30;100968.50;;;11.52;83.58
47913;BME280;33676;51.006;17.180;2023-05-07T09:19:02;100974.34;;;11.74;83.64
47913;BME280;33676;51.006;17.180;2023-05-07T09:21:35;100976.29;;;11.91;83.29
47913;BME280;33676;51.006;17.180;2023-05-07T09:24:05;100974.56;;;11.98;82.68
47913;BME280;33676;51.006;17.180;2023-05-07T09:26:35;100980.70;;;12.03;82.44
47913;BME280;33676;51.006;17.180;2023-05-07T09:38:21;100982.01;;;12.04;81.58
47913;BME280;33676;51.006;17.180;2023-05-07T09:43:33;100981.61;;;11.97;81.13
47913;BME280;33676;51.006;17.180;2023-05-07T09:46:14;100981.80;;;12.02;81.17
47913;BME280;33676;51.006;17.180;2023-05-07T09:48:44;100973.89;;;12.16;81.32
47913;BME280;33676;51.006;17.180;2023-05-07T09:51:24;100971.41;;;12.40;81.48
47913;BME280;33676;51.006;17.180;2023-05-07T09:53:58;100973.60;;;12.76;81.59
47913;BME280;33676;51.006;17.180;2023-05-07T09:56:31;100974.15;;;13.10;81.52
47913;BME280;33676;51.006;17.180;2023-05-07T09:59:02;100976.54;;;13.36;81.05
47913;BME280;33676;51.006;17.180;2023-05-07T10:01:31;100978.16;;;13.57;80.84
47913;BME280;33676;51.006;17.180;2023-05-07T10:04:07;100985.47;;;13.73;80.34
47913;BME280;33676;51.006;17.180;2023-05-07T10:06:37;100990.70;;;13.87;80.07
47913;BME280;33676;51.006;17.180;2023-05-07T10:09:06;100995.36;;;13.97;79.34
47913;BME280;33676;51.006;17.180;2023-05-07T10:11:35;100999.21;;;14.00;78.55
47913;BME280;33676;51.006;17.180;2023-05-07T10:14:05;100999.98;;;14.07;78.44
47913;BME280;33676;51.006;17.180;2023-05-07T10:16:37;101002.71;;;14.23;78.48
47913;BME280;33676;51.006;17.180;2023-05-07T10:19:08;101001.45;;;14.41;78.25
47913;BME280;33676;51.006;17.180;2023-05-07T10:24:34;101000.14;;;14.86;77.70
47913;BME280;33676;51.006;17.180;2023-05-07T10:27:09;100999.17;;;15.25;78.05
47913;BME280;33676;51.006;17.180;2023-05-07T10:32:43;100996.67;;;15.76;76.24
47913;BME280;33676;51.006;17.180;2023-05-07T10:38:30;100996.33;;;15.72;75.39
47913;BME280;33676;51.006;17.180;2023-05-07T10:41:00;100997.13;;;15.62;74.79
47913;BME280;33676;51.006;17.180;2023-05-07T10:43:44;100996.98;;;15.49;74.49
47913;BME280;33676;51.006;17.180;2023-05-07T10:46:21;101002.70;;;15.27;73.94
47913;BME280;33676;51.006;17.180;2023-05-07T10:54:42;100998.85;;;14.93;74.16
47913;BME280;33676;51.006;17.180;2023-05-07T10:57:34;101002.80;;;14.81;73.97
47913;BME280;33676;51.006;17.180;2023-05-07T11:03:07;101003.69;;;14.63;73.51
47913;BME280;33676;51.006;17.180;2023-05-07T11:05:38;101005.20;;;14.59;73.75
47913;BME280;33676;51.006;17.180;2023-05-07T11:08:08;101006.50;;;14.60;73.78
47913;BME280;33676;51.006;17.180;2023-05-07T11:10:57;101002.17;;;14.64;74.09
47913;BME280;33676;51.006;17.180;2023-05-07T11:13:44;101002.57;;;14.67;74.20
47913;BME280;33676;51.006;17.180;2023-05-07T11:16:22;101009.20;;;14.59;73.84
47913;BME280;33676;51.006;17.180;2023-05-07T11:18:56;101010.53;;;14.48;73.79
47913;BME280;33676;51.006;17.180;2023-05-07T11:21:38;101011.23;;;14.41;73.96
47913;BME280;33676;51.006;17.180;2023-05-07T11:24:09;101011.73;;;14.39;73.94
47913;BME280;33676;51.006;17.180;2023-05-07T11:26:48;101015.27;;;14.39;74.13
47913;BME280;33676;51.006;17.180;2023-05-07T11:29:20;101019.69;;;14.39;74.15
47913;BME280;33676;51.006;17.180;2023-05-07T11:31:52;101023.69;;;14.29;73.83
47913;BME280;33676;51.006;17.180;2023-05-07T11:34:26;101031.32;;;14.17;73.70
47913;BME280;33676;51.006;17.180;2023-05-07T11:36:55;101029.86;;;14.05;73.67
47913;BME280;33676;51.006;17.180;2023-05-07T11:39:32;101032.74;;;13.96;73.64
47913;BME280;33676;51.006;17.180;2023-05-07T11:42:04;101034.67;;;13.86;73.44
47913;BME280;33676;51.006;17.180;2023-05-07T11:44:44;101038.16;;;13.78;73.46
47913;BME280;33676;51.006;17.180;2023-05-07T11:47:18;101042.16;;;13.79;73.82
47913;BME280;33676;51.006;17.180;2023-05-07T11:49:49;101035.69;;;13.87;74.13
47913;BME280;33676;51.006;17.180;2023-05-07T11:52:20;101037.71;;;13.97;74.13
47913;BME280;33676;51.006;17.180;2023-05-07T11:54:56;101043.09;;;14.07;74.08
47913;BME280;33676;51.006;17.180;2023-05-07T11:57:26;101046.35;;;14.16;74.02
47913;BME280;33676;51.006;17.180;2023-05-07T11:59:59;101050.08;;;14.24;74.11
47913;BME280;33676;51.006;17.180;2023-05-07T12:02:30;101051.41;;;14.32;73.89
47913;BME280;33676;51.006;17.180;2023-05-07T12:05:00;101055.16;;;14.35;73.92
47913;BME280;33676;51.006;17.180;2023-05-07T12:07:28;101054.92;;;14.34;73.60
47913;BME280;33676;51.006;17.180;2023-05-07T12:09:57;101054.71;;;14.32;73.49
47913;BME280;33676;51.006;17.180;2023-05-07T12:12:25;101056.36;;;14.34;73.65
47913;BME280;33676;51.006;17.180;2023-05-07T12:14:55;101056.37;;;14.38;73.50
47913;BME280;33676;51.006;17.180;2023-05-07T12:17:23;101056.67;;;14.34;73.05
47913;BME280;33676;51.006;17.180;2023-05-07T12:19:52;101056.41;;;14.26;72.75
47913;BME280;33676;51.006;17.180;2023-05-07T12:22:22;101064.36;;;14.13;72.40
47913;BME280;33676;51.006;17.180;2023-05-07T12:24:57;101065.65;;;14.00;72.44
47913;BME280;33676;51.006;17.180;2023-05-07T12:27:26;101066.94;;;13.85;72.55
47913;BME280;33676;51.006;17.180;2023-05-07T12:29:57;101067.70;;;13.80;72.95
47913;BME280;33676;51.006;17.180;2023-05-07T12:32:25;101069.02;;;13.79;73.15
47913;BME280;33676;51.006;17.180;2023-05-07T12:34:54;101070.41;;;13.77;73.08
47913;BME280;33676;51.006;17.180;2023-05-07T12:37:25;101067.85;;;13.76;73.00
47913;BME280;33676;51.006;17.180;2023-05-07T12:40:08;101070.17;;;13.80;73.28
47913;BME280;33676;51.006;17.180;2023-05-07T12:42:40;101067.90;;;13.82;73.37
47913;BME280;33676;51.006;17.180;2023-05-07T12:45:11;101070.48;;;13.85;73.31
47913;BME280;33676;51.006;17.180;2023-05-07T12:47:46;101071.02;;;13.91;73.35
47913;BME280;33676;51.006;17.180;2023-05-07T12:50:15;101073.25;;;13.92;73.12
47913;BME280;33676;51.006;17.180;2023-05-07T12:52:47;101074.20;;;13.87;72.88
47913;BME280;33676;51.006;17.180;2023-05-07T12:55:16;101071.78;;;13.80;72.89
47913;BME280;33676;51.006;17.180;2023-05-07T12:57:49;101074.77;;;13.71;72.66
47913;BME280;33676;51.006;17.180;2023-05-07T13:00:37;101073.55;;;13.62;73.02
47913;BME280;33676;51.006;17.180;2023-05-07T13:03:06;101076.29;;;13.49;72.85
47913;BME280;33676;51.006;17.180;2023-05-07T13:05:34;101082.65;;;13.35;72.61
47913;BME280;33676;51.006;17.180;2023-05-07T13:08:04;101086.72;;;13.26;72.95
47913;BME280;33676;51.006;17.180;2023-05-07T13:10:32;101088.80;;;13.16;72.93
47913;BME280;33676;51.006;17.180;2023-05-07T13:13:03;101092.29;;;13.07;73.20
47913;BME280;33676;51.006;17.180;2023-05-07T13:15:32;101094.50;;;13.04;73.50
47913;BME280;33676;51.006;17.180;2023-05-07T13:18:00;101095.55;;;13.02;73.38
47913;BME280;33676;51.006;17.180;2023-05-07T13:20:29;101099.23;;;12.99;73.42
47913;BME280;33676;51.006;17.180;2023-05-07T13:23:55;101098.90;;;13.06;73.59
47913;BME280;33676;51.006;17.180;2023-05-07T13:26:25;101103.50;;;13.10;73.81
47913;BME280;33676;51.006;17.180;2023-05-07T13:28:54;101110.42;;;13.11;73.48
47913;BME280;33676;51.006;17.180;2023-05-07T13:31:24;101110.06;;;13.07;73.24
47913;BME280;33676;51.006;17.180;2023-05-07T13:33:52;101111.19;;;12.99;73.14
47913;BME280;33676;51.006;17.180;2023-05-07T13:36:21;101113.67;;;12.96;73.28
47913;BME280;33676;51.006;17.180;2023-05-07T13:38:50;101110.46;;;12.95;73.22
47913;BME280;33676;51.006;17.180;2023-05-07T13:41:20;101108.10;;;12.96;73.01
47913;BME280;33676;51.006;17.180;2023-05-07T13:43:48;101108.58;;;12.99;73.27
47913;BME280;33676;51.006;17.180;2023-05-07T13:46:17;101111.89;;;13.01;73.21
47913;BME280;33676;51.006;17.180;2023-05-07T13:49:04;101114.19;;;13.01;73.09
47913;BME280;33676;51.006;17.180;2023-05-07T13:51:33;101111.37;;;13.01;73.14